DAL231 KATL-KMCO
Flight info
| Callsign | DAL231 |
|---|---|
| Flight time | N/A |
| Altitude | 39000 |
| Route | SMLTZ3 WALET DCT ZJAYX GRNCH5 |
| Aircraft | L101/H-SDFGHIRWXY/S |
Departure
| Time | N/A |
|---|---|
| Airport | Hartsfield Jackson Atlanta International Airport (KATL) |
Arrival
| Time | 2026-04-22 23:54 |
|---|---|
| Airport | Orlando International Airport (KMCO) |
| Time | Latitude | Longitude | Altitude | Speed | Heading |
|---|---|---|---|---|---|
| 2026-04-22 23:38 | 29.07141 | -81.89514 | 14424 ft | 324 kts | 150° |
| 2026-04-22 23:39 | 29.05816 | -81.88566 | 14322 ft | 313 kts | 150° |
| 2026-04-22 23:39 | 29.03942 | -81.87239 | 14194 ft | 321 kts | 150° |
| 2026-04-22 23:39 | 29.02024 | -81.85895 | 13738 ft | 322 kts | 150° |
| 2026-04-22 23:39 | 29.00136 | -81.84570 | 13221 ft | 319 kts | 148° |
| 2026-04-22 23:40 | 28.98404 | -81.83003 | 12698 ft | 318 kts | 136° |
| 2026-04-22 23:40 | 28.96936 | -81.81127 | 12194 ft | 316 kts | 129° |
| 2026-04-22 23:40 | 28.95613 | -81.79143 | 11703 ft | 314 kts | 127° |
| 2026-04-22 23:40 | 28.94350 | -81.77132 | 11214 ft | 311 kts | 126° |
| 2026-04-22 23:41 | 28.93103 | -81.75084 | 10737 ft | 306 kts | 125° |
| 2026-04-22 23:41 | 28.91895 | -81.73093 | 10250 ft | 300 kts | 125° |
| 2026-04-22 23:41 | 28.90716 | -81.71183 | 9754 ft | 295 kts | 126° |
| 2026-04-22 23:41 | 28.89523 | -81.69271 | 9233 ft | 291 kts | 126° |
| 2026-04-22 23:42 | 28.88356 | -81.67408 | 8719 ft | 288 kts | 126° |
| 2026-04-22 23:42 | 28.87200 | -81.65586 | 8231 ft | 285 kts | 126° |
| 2026-04-22 23:42 | 28.85992 | -81.63728 | 7706 ft | 284 kts | 127° |
| 2026-04-22 23:42 | 28.84809 | -81.61939 | 7224 ft | 282 kts | 127° |
| 2026-04-22 23:43 | 28.83626 | -81.60161 | 6742 ft | 280 kts | 127° |
| 2026-04-22 23:43 | 28.82449 | -81.58397 | 6242 ft | 277 kts | 127° |
| 2026-04-22 23:43 | 28.81288 | -81.56665 | 5738 ft | 273 kts | 127° |
| 2026-04-22 23:43 | 28.80145 | -81.54972 | 5251 ft | 267 kts | 127° |
| 2026-04-22 23:44 | 28.79020 | -81.53328 | 4763 ft | 261 kts | 127° |
| 2026-04-22 23:44 | 28.77977 | -81.51713 | 4333 ft | 242 kts | 124° |
| 2026-04-22 23:44 | 28.77072 | -81.50184 | 3879 ft | 226 kts | 122° |
| 2026-04-22 23:44 | 28.76230 | -81.48712 | 3458 ft | 212 kts | 122° |
| 2026-04-22 23:45 | 28.75439 | -81.47324 | 3100 ft | 207 kts | 122° |
| 2026-04-22 23:45 | 28.74652 | -81.45943 | 2813 ft | 209 kts | 122° |
| 2026-04-22 23:45 | 28.73868 | -81.44560 | 2570 ft | 207 kts | 121° |
| 2026-04-22 23:45 | 28.73189 | -81.43122 | 2461 ft | 207 kts | 115° |
| 2026-04-22 23:46 | 28.72609 | -81.41628 | 2327 ft | 201 kts | 112° |
| 2026-04-22 23:46 | 28.72098 | -81.40246 | 2198 ft | 181 kts | 112° |
| 2026-04-22 23:46 | 28.71649 | -81.38942 | 2162 ft | 173 kts | 110° |
| 2026-04-22 23:46 | 28.71233 | -81.37628 | 2185 ft | 175 kts | 109° |
| 2026-04-22 23:47 | 28.70834 | -81.36319 | 2191 ft | 175 kts | 109° |
| 2026-04-22 23:47 | 28.70457 | -81.35030 | 2186 ft | 166 kts | 108° |
| 2026-04-22 23:47 | 28.70082 | -81.33849 | 2184 ft | 152 kts | 114° |
| 2026-04-22 23:47 | 28.69437 | -81.32933 | 2151 ft | 151 kts | 141° |
| 2026-04-22 23:48 | 28.68416 | -81.32608 | 2092 ft | 159 kts | 178° |
| 2026-04-22 23:48 | 28.67317 | -81.32910 | 2257 ft | 161 kts | 190° |
| 2026-04-22 23:48 | 28.66208 | -81.33055 | 2516 ft | 162 kts | 175° |
| 2026-04-22 23:48 | 28.65090 | -81.33009 | 2333 ft | 159 kts | 173° |
| 2026-04-22 23:49 | 28.63987 | -81.32986 | 2060 ft | 158 kts | 175° |
| 2026-04-22 23:49 | 28.62887 | -81.32989 | 1885 ft | 157 kts | 174° |
| 2026-04-22 23:49 | 28.61799 | -81.32975 | 1847 ft | 155 kts | 173° |
| 2026-04-22 23:49 | 28.60706 | -81.32971 | 1868 ft | 155 kts | 175° |
| 2026-04-22 23:50 | 28.59629 | -81.32950 | 2063 ft | 155 kts | 174° |
| 2026-04-22 23:50 | 28.58548 | -81.32910 | 2148 ft | 157 kts | 174° |
| 2026-04-22 23:50 | 28.57435 | -81.32891 | 2191 ft | 157 kts | 175° |
| 2026-04-22 23:50 | 28.56345 | -81.32882 | 2191 ft | 157 kts | 174° |
| 2026-04-22 23:51 | 28.55253 | -81.32869 | 2091 ft | 157 kts | 174° |
| 2026-04-22 23:51 | 28.54170 | -81.32851 | 1898 ft | 156 kts | 174° |
| 2026-04-22 23:51 | 28.53080 | -81.32843 | 1719 ft | 155 kts | 175° |
| 2026-04-22 23:51 | 28.52008 | -81.32823 | 1513 ft | 153 kts | 174° |
| 2026-04-22 23:52 | 28.50933 | -81.32806 | 1304 ft | 155 kts | 174° |
| 2026-04-22 23:52 | 28.49849 | -81.32795 | 1101 ft | 156 kts | 174° |
| 2026-04-22 23:52 | 28.49119 | -81.32777 | 955 ft | 155 kts | 174° |
| 2026-04-22 23:52 | 28.48042 | -81.32751 | 774 ft | 155 kts | 175° |
| 2026-04-22 23:53 | 28.46974 | -81.32749 | 580 ft | 152 kts | 174° |
| 2026-04-22 23:53 | 28.45894 | -81.32713 | 313 ft | 149 kts | 175° |
| 2026-04-22 23:53 | 28.44868 | -81.32689 | 166 ft | 151 kts | 179° |
| 2026-04-22 23:53 | 28.43957 | -81.32680 | 107 ft | 92 kts | 180° |
| 2026-04-22 23:54 | 28.43594 | -81.32680 | 106 ft | 41 kts | 180° |
| 2026-04-22 23:54 | 28.43325 | -81.32679 | 112 ft | 36 kts | 179° |
| 2026-04-22 23:54 | 28.43093 | -81.32626 | 108 ft | 24 kts | 139° |
| 2026-04-22 23:54 | 28.43060 | -81.32486 | 108 ft | 0 kts | 89° |
| 2026-04-22 23:55 | 28.43060 | -81.32445 | 108 ft | 11 kts | 89° |
| 2026-04-22 23:55 | 28.43059 | -81.32283 | 105 ft | 27 kts | 90° |
| 2026-04-22 23:56 | 28.43057 | -81.32061 | 106 ft | 25 kts | 109° |
| 2026-04-22 23:56 | 28.42941 | -81.31993 | 107 ft | 19 kts | 178° |
| 2026-04-22 23:56 | 28.42804 | -81.31992 | 109 ft | 21 kts | 179° |
| 2026-04-22 23:56 | 28.42759 | -81.31991 | 110 ft | 4 kts | 179° |
| 2026-04-22 23:57 | 28.42719 | -81.31967 | 110 ft | 7 kts | 122° |
| 2026-04-22 23:57 | 28.42706 | -81.31872 | 112 ft | 19 kts | 90° |
| 2026-04-22 23:57 | 28.42709 | -81.31688 | 107 ft | 18 kts | 88° |
| 2026-04-22 23:57 | 28.42699 | -81.31575 | 106 ft | 9 kts | 108° |
| 2026-04-22 23:58 | 28.42683 | -81.31536 | 105 ft | 0 kts | 118° |